createdAt,value
2019-05-12T00:01:18.805Z,44.10
2019-05-12T00:03:49.715Z,44.10
2019-05-12T00:06:28.307Z,44.20
2019-05-12T00:09:00.295Z,44.20
2019-05-12T00:11:37.767Z,44.20
2019-05-12T00:14:08.658Z,44.20
2019-05-12T00:16:41.918Z,44.20
2019-05-12T00:19:13.365Z,44.30
2019-05-12T00:21:44.597Z,44.30
2019-05-12T00:24:23.832Z,44.30
2019-05-12T00:26:58.010Z,44.30
2019-05-12T00:29:31.885Z,44.30
2019-05-12T00:32:04.242Z,44.30
2019-05-12T00:34:38.546Z,44.30
2019-05-12T00:37:09.293Z,44.40
2019-05-12T00:39:44.527Z,44.30
2019-05-12T00:42:18.976Z,44.40
2019-05-12T00:44:49.335Z,44.40
2019-05-12T00:47:23.097Z,44.40
2019-05-12T00:49:58.336Z,44.40
2019-05-12T00:52:34.281Z,44.30
2019-05-12T00:55:07.900Z,44.40
2019-05-12T00:57:41.794Z,44.50
2019-05-12T01:00:12.790Z,44.30
2019-05-12T01:02:43.773Z,44.40
2019-05-12T01:05:14.158Z,44.40
2019-05-12T01:07:44.834Z,44.40
2019-05-12T01:10:17.913Z,44.40
2019-05-12T01:12:48.610Z,44.40
2019-05-12T01:15:19.268Z,44.40
2019-05-12T01:17:49.980Z,44.40
2019-05-12T01:20:20.409Z,44.50
2019-05-12T01:22:52.553Z,44.50
2019-05-12T01:25:22.841Z,44.50
2019-05-12T01:27:59.222Z,44.50
2019-05-12T01:30:30.358Z,44.50
2019-05-12T01:33:04.972Z,44.50
2019-05-12T01:35:39.120Z,44.50
2019-05-12T01:38:10.529Z,44.50
2019-05-12T01:40:43.814Z,44.50
2019-05-12T01:43:18.586Z,44.50
2019-05-12T01:45:54.170Z,44.60
2019-05-12T01:48:30.310Z,44.60
2019-05-12T01:51:02.229Z,44.50
2019-05-12T01:53:32.531Z,44.60
2019-05-12T01:56:07.692Z,44.60
2019-05-12T01:58:43.276Z,44.60
2019-05-12T02:01:14.599Z,44.60
2019-05-12T02:03:44.890Z,44.60
2019-05-12T02:06:15.947Z,44.60
2019-05-12T02:08:58.078Z,44.60
2019-05-12T02:11:34.531Z,44.60
2019-05-12T02:14:06.329Z,44.60
2019-05-12T02:16:38.655Z,44.60
2019-05-12T02:19:09.517Z,44.60
2019-05-12T02:21:40.323Z,44.60
2019-05-12T02:24:23.266Z,44.60
2019-05-12T02:26:42.918Z,44.60
2019-05-12T02:29:18.160Z,44.60
2019-05-12T02:31:52.079Z,44.50
2019-05-12T02:34:26.873Z,44.50
2019-05-12T02:36:59.428Z,44.50
2019-05-12T02:39:31.261Z,44.60
2019-05-12T02:42:05.253Z,44.60
2019-05-12T02:44:35.843Z,44.70
2019-05-12T02:47:07.783Z,44.70
2019-05-12T02:49:39.444Z,44.60
2019-05-12T02:52:18.319Z,44.70
2019-05-12T02:54:59.583Z,44.60
2019-05-12T02:57:27.055Z,44.60
2019-05-12T03:00:04.719Z,44.60
2019-05-12T03:02:44.247Z,44.60
2019-05-12T03:05:17.762Z,44.60
2019-05-12T03:07:55.270Z,44.60
2019-05-12T03:10:25.357Z,44.60
2019-05-12T03:12:58.184Z,44.60
2019-05-12T03:15:28.372Z,44.60
2019-05-12T03:17:59.243Z,44.60
2019-05-12T03:20:29.462Z,44.60
2019-05-12T03:22:59.994Z,44.60
2019-05-12T03:25:35.698Z,44.60
2019-05-12T03:28:09.507Z,44.60
2019-05-12T03:30:41.314Z,44.60
2019-05-12T03:33:19.716Z,44.60
2019-05-12T03:35:52.692Z,44.60
2019-05-12T03:38:20.072Z,44.60
2019-05-12T03:40:54.932Z,44.50
2019-05-12T03:43:24.449Z,44.60
2019-05-12T03:45:55.954Z,44.60
2019-05-12T03:48:26.835Z,44.80
2019-05-12T03:50:57.190Z,44.70
2019-05-12T03:53:35.228Z,44.80
2019-05-12T03:56:04.575Z,44.70
2019-05-12T03:58:35.359Z,44.70
2019-05-12T04:01:06.119Z,44.70
2019-05-12T04:03:38.282Z,44.70
2019-05-12T04:06:09.407Z,44.70
2019-05-12T04:08:48.236Z,44.70
2019-05-12T04:11:19.542Z,44.70
2019-05-12T04:13:55.052Z,44.70
2019-05-12T04:16:26.263Z,44.70
2019-05-12T04:18:58.327Z,44.70
2019-05-12T04:21:35.004Z,44.80
2019-05-12T04:24:07.377Z,44.80
2019-05-12T04:26:41.123Z,44.80
2019-05-12T04:29:15.681Z,44.80
2019-05-12T04:31:54.935Z,44.70
2019-05-12T04:34:26.391Z,44.70
2019-05-12T04:37:04.381Z,44.80
2019-05-12T04:39:36.457Z,44.90
2019-05-12T04:42:09.964Z,45.50
2019-05-12T04:44:46.015Z,44.80
2019-05-12T04:47:18.390Z,44.80
2019-05-12T04:49:48.648Z,44.80
2019-05-12T04:52:24.810Z,44.80
2019-05-12T04:54:55.369Z,44.80
2019-05-12T04:57:26.692Z,44.90
2019-05-12T05:00:04.832Z,44.80
2019-05-12T05:02:40.804Z,44.90
2019-05-12T05:05:14.536Z,44.90
2019-05-12T05:07:45.357Z,44.90
2019-05-12T05:10:15.693Z,44.90
2019-05-12T05:12:47.647Z,44.90
2019-05-12T05:15:25.712Z,44.90
2019-05-12T05:17:56.762Z,44.90
2019-05-12T05:20:30.065Z,44.90
2019-05-12T05:23:06.078Z,44.90
2019-05-12T05:25:37.967Z,44.80
2019-05-12T05:28:10.494Z,44.80
2019-05-12T05:30:41.011Z,44.80
2019-05-12T05:33:14.554Z,44.80
2019-05-12T05:35:49.615Z,44.80
2019-05-12T05:38:23.687Z,44.80
2019-05-12T05:40:59.784Z,44.80
2019-05-12T05:43:30.103Z,44.70
2019-05-12T05:46:07.436Z,44.70
2019-05-12T05:48:35.207Z,44.70
2019-05-12T05:51:09.045Z,44.60
2019-05-12T05:53:38.943Z,44.80
2019-05-12T05:56:18.052Z,44.70
2019-05-12T05:58:51.814Z,44.60
2019-05-12T06:01:24.507Z,44.60
2019-05-12T06:04:04.484Z,44.70
2019-05-12T06:06:42.493Z,44.70
2019-05-12T06:09:15.158Z,44.70
2019-05-12T06:11:47.039Z,44.70
2019-05-12T06:14:18.823Z,44.70
2019-05-12T06:16:49.572Z,44.70
2019-05-12T06:19:19.827Z,44.70
2019-05-12T06:21:50.602Z,44.80
2019-05-12T06:24:23.983Z,44.70
2019-05-12T06:27:00.473Z,44.70
2019-05-12T06:29:28.454Z,44.70
2019-05-12T06:32:08.736Z,44.70
2019-05-12T06:34:34.592Z,44.70
2019-05-12T06:37:12.211Z,44.70
2019-05-12T06:39:51.055Z,44.70
2019-05-12T06:42:26.143Z,44.60
2019-05-12T06:44:58.881Z,44.70
2019-05-12T06:47:30.053Z,44.60
2019-05-12T06:50:03.968Z,44.60
2019-05-12T06:52:38.588Z,44.70
2019-05-12T06:55:20.910Z,44.60
2019-05-12T06:57:53.991Z,44.60
2019-05-12T07:00:30.880Z,44.60
2019-05-12T07:03:03.946Z,44.60
2019-05-12T07:05:38.441Z,44.60
2019-05-12T07:08:10.046Z,44.60
2019-05-12T07:10:45.940Z,44.60
2019-05-12T07:13:14.811Z,44.70
2019-05-12T07:15:46.057Z,44.60
2019-05-12T07:18:24.379Z,44.50
2019-05-12T07:20:54.098Z,44.70
2019-05-12T07:23:33.712Z,44.70
2019-05-12T07:26:14.102Z,44.70
2019-05-12T07:28:40.530Z,44.80
2019-05-12T07:31:10.866Z,45.50
2019-05-12T07:33:45.726Z,44.90
2019-05-12T07:36:16.073Z,44.90
2019-05-12T07:38:48.137Z,44.90
2019-05-12T07:41:25.721Z,44.70
2019-05-12T07:44:03.609Z,44.80
2019-05-12T07:46:39.619Z,44.70
2019-05-12T07:49:14.019Z,44.70
2019-05-12T07:51:45.949Z,44.80
2019-05-12T07:54:20.192Z,47.70
2019-05-12T07:56:53.812Z,47.30
2019-05-12T07:59:38.873Z,48.30
2019-05-12T08:02:03.925Z,48.90
2019-05-12T08:04:40.105Z,49.30
2019-05-12T08:07:08.199Z,50.00
2019-05-12T08:09:40.118Z,49.40
2019-05-12T08:12:20.843Z,49.80
2019-05-12T08:15:05.405Z,50.50
2019-05-12T08:17:25.260Z,50.80
2019-05-12T08:19:55.685Z,51.00
2019-05-12T08:22:29.291Z,51.00
2019-05-12T08:24:58.710Z,50.70
2019-05-12T08:27:33.914Z,50.60
2019-05-12T08:30:06.248Z,50.90
2019-05-12T08:32:41.403Z,50.80
2019-05-12T08:35:14.020Z,51.20
2019-05-12T08:37:44.979Z,51.90
2019-05-12T08:40:15.775Z,51.10
2019-05-12T08:42:46.945Z,50.80
2019-05-12T08:45:27.425Z,50.70
2019-05-12T08:47:54.149Z,50.50
2019-05-12T08:50:31.571Z,50.20
2019-05-12T08:52:58.887Z,50.10
2019-05-12T08:55:31.601Z,49.80
2019-05-12T08:58:03.799Z,49.20
2019-05-12T09:00:44.967Z,48.80
2019-05-12T09:03:11.447Z,48.30
2019-05-12T09:05:44.593Z,48.40
2019-05-12T09:08:16.326Z,48.40
2019-05-12T09:10:52.188Z,48.20
2019-05-12T09:13:23.420Z,48.20
2019-05-12T09:15:57.239Z,48.10
2019-05-12T09:18:33.511Z,47.90
2019-05-12T09:21:00.128Z,48.00
2019-05-12T09:23:32.821Z,47.80
2019-05-12T09:26:04.101Z,47.70
2019-05-12T09:28:46.320Z,47.70
2019-05-12T09:31:07.314Z,47.60
2019-05-12T09:33:38.399Z,47.70
2019-05-12T09:36:11.391Z,47.50
2019-05-12T09:38:43.983Z,47.40
2019-05-12T09:41:16.731Z,47.30
2019-05-12T09:43:50.408Z,47.40
2019-05-12T09:46:20.655Z,47.40
2019-05-12T09:48:52.989Z,47.30
2019-05-12T09:51:24.158Z,47.10
2019-05-12T09:53:57.536Z,47.30
2019-05-12T09:56:34.059Z,47.20
2019-05-12T09:59:17.483Z,47.20
2019-05-12T10:01:46.043Z,47.40
2019-05-12T10:04:19.599Z,47.30
2019-05-12T10:06:50.906Z,47.20
2019-05-12T10:09:27.263Z,47.00
2019-05-12T10:12:01.176Z,47.00
2019-05-12T10:14:40.714Z,46.90
2019-05-12T10:17:09.447Z,46.90
2019-05-12T10:19:43.403Z,47.00
2019-05-12T10:22:17.374Z,46.90
2019-05-12T10:24:57.769Z,47.00
2019-05-12T10:27:21.158Z,46.90
2019-05-12T10:29:54.246Z,46.90
2019-05-12T10:32:25.681Z,46.90
2019-05-12T10:34:56.075Z,46.90
2019-05-12T10:37:30.451Z,47.00
2019-05-12T10:40:03.539Z,46.80
2019-05-12T10:42:39.744Z,46.80
2019-05-12T10:45:18.969Z,47.00
2019-05-12T10:47:46.373Z,46.90
2019-05-12T10:50:16.907Z,46.80
2019-05-12T10:52:48.858Z,46.80
2019-05-12T10:55:19.246Z,46.60
2019-05-12T10:58:01.456Z,46.20
2019-05-12T11:00:26.908Z,46.40
2019-05-12T11:03:01.421Z,46.50
2019-05-12T11:05:35.422Z,46.50
2019-05-12T11:08:10.925Z,46.60
2019-05-12T11:10:44.322Z,46.60
2019-05-12T11:13:20.741Z,46.50
2019-05-12T11:15:51.141Z,46.60
2019-05-12T11:18:30.081Z,46.50
2019-05-12T11:20:59.263Z,46.60
2019-05-12T11:23:34.451Z,47.10
2019-05-12T11:26:04.855Z,46.50
2019-05-12T11:28:35.391Z,46.60
2019-05-12T11:31:08.342Z,46.50
2019-05-12T11:33:40.850Z,46.50
2019-05-12T11:36:14.452Z,46.70
2019-05-12T11:38:47.126Z,46.70
2019-05-12T11:41:21.495Z,46.60
2019-05-12T11:43:52.509Z,46.70
2019-05-12T11:46:24.007Z,46.70
2019-05-12T11:48:55.038Z,46.90
2019-05-12T11:51:30.243Z,47.00
2019-05-12T11:54:03.503Z,46.90
2019-05-12T11:56:33.709Z,47.00
2019-05-12T11:59:07.011Z,47.00
2019-05-12T12:01:39.588Z,47.00
2019-05-12T12:04:14.172Z,47.10
2019-05-12T12:06:47.975Z,46.80
2019-05-12T12:09:19.093Z,46.80
2019-05-12T12:11:54.631Z,46.90
2019-05-12T12:14:23.815Z,46.90
2019-05-12T12:16:54.565Z,46.80
2019-05-12T12:19:34.027Z,46.80
2019-05-12T12:22:00.458Z,46.80
2019-05-12T12:24:31.722Z,46.80
2019-05-12T12:27:04.815Z,46.80
2019-05-12T12:29:37.122Z,47.40
2019-05-12T12:32:15.204Z,46.90
2019-05-12T12:34:43.926Z,46.90
2019-05-12T12:37:18.982Z,46.90
2019-05-12T12:39:53.642Z,46.70
2019-05-12T12:42:30.258Z,46.60
2019-05-12T12:45:00.807Z,46.70
2019-05-12T12:47:38.039Z,46.60
2019-05-12T12:50:05.872Z,46.50
2019-05-12T12:52:44.822Z,46.30
2019-05-12T12:55:14.082Z,46.30
2019-05-12T12:57:46.409Z,46.20
2019-05-12T13:00:31.495Z,46.10
2019-05-12T13:02:51.194Z,46.00
2019-05-12T13:05:23.957Z,46.40
2019-05-12T13:07:55.018Z,45.80
2019-05-12T13:10:28.828Z,45.60
2019-05-12T13:13:03.391Z,45.70
2019-05-12T13:15:34.157Z,45.60
2019-05-12T13:18:18.035Z,45.50
2019-05-12T13:20:43.630Z,45.50
2019-05-12T13:23:17.131Z,45.50
2019-05-12T13:25:52.041Z,45.50
2019-05-12T13:28:25.149Z,45.50
2019-05-12T13:31:07.343Z,45.40
2019-05-12T13:33:29.012Z,45.40
2019-05-12T13:36:06.836Z,45.40
2019-05-12T13:38:40.507Z,45.50
2019-05-12T13:41:17.976Z,45.50
2019-05-12T13:43:54.796Z,45.50
2019-05-12T13:46:18.323Z,45.50
2019-05-12T13:48:57.716Z,45.50
2019-05-12T13:51:30.563Z,45.50
2019-05-12T13:53:59.930Z,45.50
2019-05-12T13:56:35.915Z,45.60
2019-05-12T13:59:12.255Z,45.60
2019-05-12T14:01:42.854Z,45.70
2019-05-12T14:04:15.111Z,45.60
2019-05-12T14:06:47.242Z,46.40
2019-05-12T14:09:20.794Z,45.60
2019-05-12T14:11:53.814Z,45.60
2019-05-12T14:14:25.238Z,45.70
2019-05-12T14:17:01.018Z,45.70
2019-05-12T14:19:35.713Z,45.70
2019-05-12T14:22:20.764Z,45.70
2019-05-12T14:24:46.558Z,45.70
2019-05-12T14:27:27.136Z,45.70
2019-05-12T14:29:53.720Z,45.70
2019-05-12T14:32:25.254Z,45.80
2019-05-12T14:34:59.286Z,45.80
2019-05-12T14:37:29.549Z,45.90
2019-05-12T14:40:04.953Z,45.90
2019-05-12T14:42:39.654Z,45.90
2019-05-12T14:45:13.517Z,46.00
2019-05-12T14:47:45.465Z,46.00
2019-05-12T14:50:17.699Z,46.10
2019-05-12T14:52:55.129Z,46.20
2019-05-12T14:55:24.217Z,46.20
2019-05-12T14:58:00.371Z,46.40
2019-05-12T15:00:40.794Z,46.50
2019-05-12T15:03:15.595Z,46.80
2019-05-12T15:05:48.698Z,46.80
2019-05-12T15:08:21.490Z,47.10
2019-05-12T15:10:53.450Z,47.20
2019-05-12T15:13:25.779Z,47.30
2019-05-12T15:16:01.873Z,47.30
2019-05-12T15:18:39.474Z,47.40
2019-05-12T15:21:13.844Z,47.50
2019-05-12T15:23:44.499Z,47.70
2019-05-12T15:26:19.862Z,47.70
2019-05-12T15:28:54.267Z,47.70
2019-05-12T15:31:28.103Z,47.80
2019-05-12T15:33:59.335Z,47.80
2019-05-12T15:36:34.619Z,47.80
2019-05-12T15:39:10.009Z,47.80
2019-05-12T15:41:40.978Z,47.90
2019-05-12T15:44:14.694Z,48.00
2019-05-12T15:46:49.889Z,48.10
2019-05-12T15:49:25.939Z,48.10
2019-05-12T15:51:58.621Z,48.30
2019-05-12T15:54:33.981Z,48.50
2019-05-12T15:57:06.202Z,48.50
2019-05-12T15:59:37.975Z,48.60
2019-05-12T16:02:14.637Z,48.60
2019-05-12T16:04:44.541Z,48.70
2019-05-12T16:07:14.561Z,48.70
2019-05-12T16:09:46.023Z,48.50
2019-05-12T16:12:23.676Z,48.40
2019-05-12T16:14:54.042Z,48.40
2019-05-12T16:17:27.195Z,48.30
2019-05-12T16:19:59.462Z,49.00
2019-05-12T16:22:44.377Z,49.70
2019-05-12T16:25:11.496Z,50.00
2019-05-12T16:27:51.801Z,50.30
2019-05-12T16:30:29.789Z,50.30
2019-05-12T16:33:03.153Z,50.50
2019-05-12T16:35:35.250Z,50.40
2019-05-12T16:38:17.291Z,50.40
2019-05-12T16:40:49.604Z,50.40
2019-05-12T16:43:19.857Z,50.30
2019-05-12T16:45:50.985Z,50.30
2019-05-12T16:48:30.488Z,50.20
2019-05-12T16:50:58.835Z,50.10
2019-05-12T16:53:31.366Z,50.00
2019-05-12T16:56:04.114Z,49.80
2019-05-12T16:58:36.960Z,49.70
2019-05-12T17:01:08.613Z,49.60
2019-05-12T17:03:44.453Z,49.80
2019-05-12T17:06:20.556Z,50.00
2019-05-12T17:08:54.356Z,50.00
2019-05-12T17:11:30.704Z,50.00
2019-05-12T17:14:04.887Z,50.00
2019-05-12T17:16:41.846Z,50.00
2019-05-12T17:19:10.984Z,50.00
2019-05-12T17:21:49.439Z,50.00
2019-05-12T17:24:20.058Z,49.90
2019-05-12T17:26:52.456Z,50.00
2019-05-12T17:29:25.206Z,49.90
2019-05-12T17:31:56.262Z,49.90
2019-05-12T17:34:28.923Z,49.90
2019-05-12T17:37:04.112Z,49.90
2019-05-12T17:39:39.246Z,49.90
2019-05-12T17:42:26.880Z,49.80
2019-05-12T17:45:03.879Z,49.80
2019-05-12T17:47:37.493Z,49.80
2019-05-12T17:50:13.798Z,49.60
2019-05-12T17:52:50.507Z,49.50
2019-05-12T17:55:22.810Z,49.50
2019-05-12T17:57:57.989Z,49.40
2019-05-12T18:00:33.648Z,49.60
2019-05-12T18:03:20.652Z,50.00
2019-05-12T18:05:42.530Z,50.00
2019-05-12T18:08:14.290Z,50.00
2019-05-12T18:10:48.212Z,50.10
2019-05-12T18:13:22.926Z,50.30
2019-05-12T18:15:51.302Z,50.40
2019-05-12T18:18:24.192Z,50.40
2019-05-12T18:20:58.511Z,50.20
2019-05-12T18:23:35.703Z,50.20
2019-05-12T18:26:11.507Z,50.30
2019-05-12T18:28:49.971Z,50.30
2019-05-12T18:31:25.557Z,50.50
2019-05-12T18:34:04.749Z,50.50
2019-05-12T18:36:41.118Z,50.50
2019-05-12T18:39:19.376Z,50.50
2019-05-12T18:41:55.324Z,50.50
2019-05-12T18:44:31.606Z,50.50
2019-05-12T18:47:04.426Z,50.50
2019-05-12T18:49:36.058Z,50.40
2019-05-12T18:52:10.997Z,50.40
2019-05-12T18:54:51.640Z,50.50
2019-05-12T18:57:17.890Z,50.40
2019-05-12T18:59:57.136Z,50.40
2019-05-12T19:02:28.551Z,50.40
2019-05-12T19:04:58.164Z,50.40
2019-05-12T19:07:39.790Z,50.40
2019-05-12T19:10:09.902Z,50.40
2019-05-12T19:12:43.968Z,50.40
2019-05-12T19:15:28.485Z,50.40
2019-05-12T19:18:07.165Z,50.30
2019-05-12T19:20:43.287Z,50.30
2019-05-12T19:23:26.073Z,50.30
2019-05-12T19:25:54.347Z,50.30
2019-05-12T19:28:27.274Z,50.30
2019-05-12T19:31:00.940Z,50.30
2019-05-12T19:33:53.300Z,50.30
2019-05-12T19:36:19.995Z,50.10
2019-05-12T19:38:56.208Z,50.00
2019-05-12T19:41:30.763Z,50.00
2019-05-12T19:44:07.389Z,50.00
2019-05-12T19:46:46.038Z,48.50
2019-05-12T19:49:20.096Z,48.50
2019-05-12T19:51:50.505Z,49.60
2019-05-12T19:54:25.531Z,50.80
2019-05-12T19:56:57.972Z,51.60
2019-05-12T19:59:50.956Z,52.10
2019-05-12T20:02:19.788Z,53.00
2019-05-12T20:04:53.414Z,53.30
2019-05-12T20:07:25.763Z,54.20
2019-05-12T20:10:04.640Z,54.80
2019-05-12T20:12:40.138Z,55.10
2019-05-12T20:15:14.745Z,55.10
2019-05-12T20:17:49.492Z,55.80
2019-05-12T20:20:26.728Z,56.10
2019-05-12T20:22:54.502Z,55.70
2019-05-12T20:25:29.463Z,55.20
2019-05-12T20:28:05.884Z,54.60
2019-05-12T20:30:33.745Z,54.00
2019-05-12T20:33:08.056Z,53.50
2019-05-12T20:35:47.375Z,53.10
2019-05-12T20:38:14.889Z,52.70
2019-05-12T20:40:48.335Z,52.30
2019-05-12T20:43:24.131Z,52.00
2019-05-12T20:45:53.703Z,51.60
2019-05-12T20:48:31.196Z,51.30
2019-05-12T20:51:00.120Z,51.10
2019-05-12T20:53:33.575Z,51.60
2019-05-12T20:56:07.086Z,50.80
2019-05-12T20:58:43.697Z,50.60
2019-05-12T21:01:14.277Z,50.60
2019-05-12T21:03:50.590Z,50.50
2019-05-12T21:06:23.667Z,50.40
2019-05-12T21:08:56.569Z,50.40
2019-05-12T21:11:30.215Z,50.40
2019-05-12T21:14:09.957Z,50.20
2019-05-12T21:16:38.749Z,50.20
2019-05-12T21:19:14.005Z,50.10
2019-05-12T21:21:44.443Z,50.00
2019-05-12T21:24:16.053Z,49.90
2019-05-12T21:26:46.783Z,49.80
2019-05-12T21:29:19.192Z,49.70
2019-05-12T21:31:53.231Z,49.60
2019-05-12T21:34:25.504Z,49.50
2019-05-12T21:36:59.085Z,50.10
2019-05-12T21:39:29.502Z,49.40
2019-05-12T21:42:07.574Z,49.40
2019-05-12T21:44:41.331Z,49.30
2019-05-12T21:47:14.372Z,49.20
2019-05-12T21:49:58.017Z,49.20
2019-05-12T21:52:37.208Z,49.10
2019-05-12T21:55:03.796Z,49.00
2019-05-12T21:57:37.790Z,49.00
2019-05-12T22:00:15.980Z,48.90
2019-05-12T22:02:50.322Z,48.80
2019-05-12T22:05:28.076Z,48.80
2019-05-12T22:07:54.585Z,48.80
2019-05-12T22:10:30.150Z,48.70
2019-05-12T22:13:09.037Z,48.60
2019-05-12T22:15:36.024Z,48.60
2019-05-12T22:18:08.225Z,48.50
2019-05-12T22:20:38.554Z,48.40
2019-05-12T22:23:11.755Z,48.40
2019-05-12T22:25:43.528Z,48.50
2019-05-12T22:28:14.769Z,48.30
2019-05-12T22:30:47.543Z,48.30
2019-05-12T22:33:18.466Z,48.30
2019-05-12T22:36:01.840Z,48.30
2019-05-12T22:38:24.526Z,48.30
2019-05-12T22:40:58.065Z,48.30
2019-05-12T22:43:31.322Z,48.20
2019-05-12T22:46:01.807Z,48.30
2019-05-12T22:48:40.459Z,48.20
2019-05-12T22:51:15.610Z,48.20
2019-05-12T22:53:43.399Z,48.20
2019-05-12T22:56:18.132Z,48.10
2019-05-12T22:58:47.190Z,48.10
2019-05-12T23:01:17.492Z,48.10
2019-05-12T23:03:51.530Z,48.10
2019-05-12T23:06:25.102Z,48.10
2019-05-12T23:08:54.232Z,48.10
2019-05-12T23:11:37.692Z,48.50
2019-05-12T23:14:05.649Z,48.10
2019-05-12T23:16:36.037Z,48.10
2019-05-12T23:19:11.981Z,48.10
2019-05-12T23:21:39.262Z,48.00
2019-05-12T23:24:14.020Z,48.00
2019-05-12T23:26:47.883Z,48.10
2019-05-12T23:29:20.498Z,48.00
2019-05-12T23:31:55.182Z,48.00
2019-05-12T23:34:25.851Z,48.00
2019-05-12T23:37:05.347Z,48.10
2019-05-12T23:39:38.097Z,48.10
2019-05-12T23:42:10.162Z,48.10
2019-05-12T23:44:43.996Z,48.10
2019-05-12T23:47:17.858Z,48.20
2019-05-12T23:49:48.741Z,48.20
2019-05-12T23:52:20.019Z,48.10
2019-05-12T23:54:54.971Z,48.10
2019-05-12T23:57:26.450Z,48.10
2019-05-12T23:59:58.497Z,48.10
